CheckWX is a tool to help pilots better visualize weather data.  It is not intended as a substitute for an official pre-flight weather briefing.

02:29:14 UTC

KFOK METAR
Francis S Gabreski Airport
Westhampton Beach, New York, USA
Current

36 mins ago

KFOK 180153Z 00000KT 10SM OVC055 01/M04 A3004 RMK AO2 SLP174 T00111039
Observed
Feb-18 @ 01:53 UTC
Visibility
10 SM
Flight Rules
VFR
Cloud Levels
  • Overcast at 5,500' AGL
Temperature
C / 34°F
Dewpoint
-4°C / 25°F
Humidity
70%
Altimeter
30.04" Hg
Pressure
1017.4 hPa
Previous

2 hours ago

KFOK 180053Z 16003KT 10SM OVC060 00/M05 A3007 RMK AO2 SLP182 T00001050
Observed
Feb-18 @ 00:53 UTC
Wind
  • 160° at 3 KTS
Visibility
10 SM
Flight Rules
VFR
Cloud Levels
  • Overcast at 6,000' AGL
Temperature
C / 32°F
Dewpoint
-5°C / 23°F
Humidity
69%
Altimeter
30.07" Hg
Pressure
1018.2 hPa
Previous

3 hours ago

KFOK 172353Z 17003KT 10SM BKN065 OVC095 M02/M06 A3007 RMK AO2 SLP184 T10171061 10017 21033 58002
Observed
Feb-17 @ 23:53 UTC
Wind
  • 170° at 3 KTS
Visibility
10 SM
Flight Rules
VFR
Cloud Levels
  • Broken at 6,500' AGL
  • Overcast at 9,500' AGL
Temperature
-2°C / 28°F
Dewpoint
-6°C / 21°F
Humidity
74%
Altimeter
30.07" Hg
Pressure
1018.4 hPa